createdAt,value
2018-12-05T00:01:00.509Z,3.70
2018-12-05T00:03:26.957Z,3.70
2018-12-05T00:05:53.454Z,3.70
2018-12-05T00:08:19.856Z,3.70
2018-12-05T00:13:13.916Z,3.80
2018-12-05T00:18:07.134Z,3.80
2018-12-05T00:20:33.560Z,3.80
2018-12-05T00:22:59.994Z,3.80
2018-12-05T00:25:26.518Z,3.80
2018-12-05T00:27:53.039Z,3.80
2018-12-05T00:32:46.257Z,3.80
2018-12-05T00:35:12.721Z,3.80
2018-12-05T00:37:39.121Z,3.80
2018-12-05T00:40:05.702Z,3.80
2018-12-05T00:42:32.145Z,3.90
2018-12-05T00:44:58.628Z,3.90
2018-12-05T00:47:25.077Z,3.90
2018-12-05T00:52:18.278Z,3.90
2018-12-05T00:54:45.960Z,3.90
2018-12-05T00:57:12.629Z,3.90
2018-12-05T00:59:39.047Z,3.90
2018-12-05T01:02:05.529Z,3.90
2018-12-05T01:04:31.920Z,3.90
2018-12-05T01:09:25.096Z,4.00
2018-12-05T01:14:18.454Z,4.00
2018-12-05T01:16:44.904Z,4.00
2018-12-05T01:19:11.288Z,3.90
2018-12-05T01:21:37.751Z,3.90
2018-12-05T01:24:04.262Z,3.90
2018-12-05T01:28:57.498Z,3.90
2018-12-05T01:31:24.039Z,3.90
2018-12-05T01:33:50.451Z,3.90
2018-12-05T01:36:16.924Z,3.80
2018-12-05T01:38:43.361Z,3.80
2018-12-05T01:43:42.633Z,3.80
2018-12-05T01:46:09.062Z,3.80
2018-12-05T01:48:35.500Z,3.80
2018-12-05T01:51:01.927Z,3.80
2018-12-05T01:53:28.353Z,3.70
2018-12-05T01:55:54.754Z,3.60
2018-12-05T01:58:21.187Z,3.60
2018-12-05T02:00:47.818Z,3.40
2018-12-05T02:03:14.282Z,3.30
2018-12-05T02:08:07.562Z,3.20
2018-12-05T02:10:33.990Z,3.10
2018-12-05T02:13:00.444Z,3.00
2018-12-05T02:15:26.862Z,2.90
2018-12-05T02:17:53.317Z,2.80
2018-12-05T02:20:19.662Z,2.70
2018-12-05T02:25:12.847Z,2.60
2018-12-05T02:30:06.282Z,2.50
2018-12-05T02:32:32.702Z,2.40
2018-12-05T02:34:59.112Z,2.40
2018-12-05T02:37:25.548Z,2.30
2018-12-05T02:39:51.985Z,2.30
2018-12-05T02:42:18.429Z,2.20
2018-12-05T02:47:11.696Z,2.10
2018-12-05T02:49:38.130Z,2.10
2018-12-05T02:52:04.700Z,2.20
2018-12-05T02:54:31.235Z,2.20
2018-12-05T02:56:57.741Z,2.20
2018-12-05T02:59:25.179Z,2.20
2018-12-05T03:01:51.589Z,2.20
2018-12-05T03:04:18.042Z,2.20
2018-12-05T03:06:44.606Z,2.20
2018-12-05T03:09:11.196Z,2.20
2018-12-05T03:11:37.603Z,2.10
2018-12-05T03:16:30.778Z,2.10
2018-12-05T03:18:57.194Z,2.20
2018-12-05T03:21:23.605Z,2.10
2018-12-05T03:23:50.053Z,2.10
2018-12-05T03:26:16.468Z,2.10
2018-12-05T03:31:09.693Z,2.20
2018-12-05T03:33:36.133Z,2.30
2018-12-05T03:36:02.581Z,2.30
2018-12-05T03:38:29.032Z,2.30
2018-12-05T03:40:56.956Z,2.30
2018-12-05T03:43:23.670Z,2.30
2018-12-05T03:45:52.016Z,2.40
2018-12-05T03:50:45.307Z,2.50
2018-12-05T03:53:11.788Z,2.40
2018-12-05T03:58:05.071Z,2.40
2018-12-05T04:07:51.995Z,2.30
2018-12-05T04:10:18.577Z,2.30
2018-12-05T04:12:44.979Z,2.30
2018-12-05T04:15:11.419Z,2.30
2018-12-05T04:17:37.961Z,2.30
2018-12-05T04:20:04.866Z,2.30
2018-12-05T04:22:31.265Z,2.30
2018-12-05T04:27:25.640Z,2.30
2018-12-05T04:32:20.803Z,2.20
2018-12-05T04:34:47.122Z,2.30
2018-12-05T04:37:13.878Z,2.30
2018-12-05T04:39:40.373Z,2.30
2018-12-05T04:44:34.078Z,2.30
2018-12-05T04:47:00.525Z,2.30
2018-12-05T04:49:26.957Z,2.40
2018-12-05T04:51:53.363Z,2.50
2018-12-05T04:59:13.411Z,2.70
2018-12-05T05:01:40.059Z,2.80
2018-12-05T05:04:06.648Z,2.80
2018-12-05T05:06:33.074Z,2.90
2018-12-05T05:09:01.314Z,2.90
2018-12-05T05:13:54.472Z,2.90
2018-12-05T05:16:20.852Z,3.00
2018-12-05T05:18:47.261Z,3.00
2018-12-05T05:21:13.867Z,3.00
2018-12-05T05:23:40.383Z,3.00
2018-12-05T05:26:06.828Z,3.10
2018-12-05T05:28:33.225Z,3.10
2018-12-05T05:30:59.705Z,3.20
2018-12-05T05:33:26.212Z,3.20
2018-12-05T05:35:52.631Z,3.20
2018-12-05T05:38:19.090Z,3.20
2018-12-05T05:40:45.630Z,3.20
2018-12-05T05:45:38.892Z,3.20
2018-12-05T05:48:05.363Z,3.20
2018-12-05T05:50:31.845Z,3.30
2018-12-05T05:57:51.968Z,3.30
2018-12-05T06:00:18.572Z,3.40
2018-12-05T06:02:45.005Z,3.40
2018-12-05T06:05:11.570Z,3.40
2018-12-05T06:07:38.010Z,3.40
2018-12-05T06:10:05.424Z,3.40
2018-12-05T06:14:58.675Z,3.50
2018-12-05T06:17:24.995Z,3.50
2018-12-05T06:19:51.343Z,3.60
2018-12-05T06:27:11.260Z,3.60
2018-12-05T06:29:37.639Z,3.60
2018-12-05T06:34:30.775Z,3.60
2018-12-05T06:36:57.074Z,3.70
2018-12-05T06:41:50.343Z,3.70
2018-12-05T06:44:17.391Z,3.70
2018-12-05T06:46:43.852Z,3.80
2018-12-05T06:49:10.271Z,3.70
2018-12-05T06:51:36.729Z,3.80
2018-12-05T06:54:03.316Z,3.80
2018-12-05T06:56:29.789Z,3.80
2018-12-05T06:58:56.169Z,3.80
2018-12-05T07:01:22.650Z,3.80
2018-12-05T07:06:16.088Z,3.90
2018-12-05T07:11:09.452Z,3.90
2018-12-05T07:13:35.874Z,4.00
2018-12-05T07:18:29.131Z,4.00
2018-12-05T07:20:55.565Z,4.00
2018-12-05T07:28:15.579Z,4.00
2018-12-05T07:33:08.883Z,3.90
2018-12-05T07:35:35.301Z,4.00
2018-12-05T07:38:01.789Z,4.10
2018-12-05T07:40:28.202Z,4.10
2018-12-05T07:42:54.698Z,4.20
2018-12-05T07:45:21.228Z,4.20
2018-12-05T07:47:47.830Z,4.10
2018-12-05T07:50:15.819Z,4.30
2018-12-05T07:52:42.583Z,4.30
2018-12-05T07:55:09.013Z,4.40
2018-12-05T07:57:35.469Z,4.40
2018-12-05T08:00:02.178Z,4.50
2018-12-05T08:02:28.561Z,4.50
2018-12-05T08:07:21.810Z,4.50
2018-12-05T08:09:48.242Z,4.60
2018-12-05T08:12:14.745Z,4.60
2018-12-05T08:14:41.118Z,4.70
2018-12-05T08:17:08.569Z,4.70
2018-12-05T08:24:28.496Z,5.00
2018-12-05T08:26:54.901Z,5.10
2018-12-05T08:29:21.275Z,5.10
2018-12-05T08:31:47.673Z,5.10
2018-12-05T08:36:40.907Z,5.20
2018-12-05T08:39:07.410Z,5.30
2018-12-05T08:41:33.848Z,5.30
2018-12-05T08:46:27.282Z,5.40
2018-12-05T08:48:53.696Z,5.40
2018-12-05T08:51:20.188Z,5.40
2018-12-05T08:53:46.616Z,5.50
2018-12-05T08:56:13.067Z,5.50
2018-12-05T08:58:39.580Z,5.50
2018-12-05T09:01:06.175Z,5.60
2018-12-05T09:05:59.499Z,5.60
2018-12-05T09:08:25.905Z,5.60
2018-12-05T09:10:52.332Z,5.70
2018-12-05T09:13:18.692Z,5.70
2018-12-05T09:18:11.863Z,5.80
2018-12-05T09:20:39.250Z,5.90
2018-12-05T09:23:05.668Z,5.90
2018-12-05T09:25:32.223Z,6.00
2018-12-05T09:27:58.702Z,6.10
2018-12-05T09:30:25.107Z,6.10
2018-12-05T09:32:51.549Z,6.10
2018-12-05T09:35:17.928Z,6.20
2018-12-05T09:40:11.275Z,6.30
2018-12-05T09:42:37.780Z,6.40
2018-12-05T09:45:07.858Z,6.50
2018-12-05T09:47:34.328Z,6.60
2018-12-05T09:50:00.709Z,6.70
2018-12-05T09:52:27.151Z,6.70
2018-12-05T09:54:53.569Z,6.90
2018-12-05T10:02:13.615Z,7.00
2018-12-05T10:07:06.815Z,7.00
2018-12-05T10:09:33.282Z,7.00
2018-12-05T10:11:59.718Z,7.10
2018-12-05T10:14:26.152Z,7.10
2018-12-05T10:19:19.344Z,7.00
2018-12-05T10:21:45.764Z,7.10
2018-12-05T10:24:12.181Z,7.00
2018-12-05T10:26:38.593Z,7.00
2018-12-05T10:29:05.034Z,7.00
2018-12-05T10:36:25.477Z,7.10
2018-12-05T10:38:51.894Z,7.10
2018-12-05T10:43:45.174Z,7.20
2018-12-05T10:46:11.748Z,7.30
2018-12-05T10:48:38.145Z,7.40
2018-12-05T10:51:04.669Z,7.50
2018-12-05T10:53:31.175Z,7.60
2018-12-05T10:55:57.738Z,7.60
2018-12-05T10:58:24.334Z,7.60
2018-12-05T11:00:56.849Z,7.60
2018-12-05T11:06:03.347Z,7.50
2018-12-05T11:08:35.882Z,7.40
2018-12-05T11:11:08.586Z,7.40
2018-12-05T11:13:41.003Z,7.30
2018-12-05T11:16:09.626Z,7.30
2018-12-05T11:18:42.193Z,7.20
2018-12-05T11:21:14.630Z,7.20
2018-12-05T11:23:47.633Z,7.30
2018-12-05T11:26:16.072Z,7.30
2018-12-05T11:28:42.947Z,7.30
2018-12-05T11:33:36.287Z,7.30
2018-12-05T11:36:02.784Z,7.30
2018-12-05T11:40:56.145Z,7.30
2018-12-05T11:45:49.435Z,7.40
2018-12-05T11:48:15.957Z,7.50
2018-12-05T11:50:42.403Z,7.50
2018-12-05T11:55:35.723Z,7.60
2018-12-05T11:58:02.232Z,7.60
2018-12-05T12:00:29.290Z,7.60
2018-12-05T12:07:49.347Z,7.50
2018-12-05T12:10:16.316Z,7.40
2018-12-05T12:12:48.900Z,7.50
2018-12-05T12:15:17.349Z,7.50
2018-12-05T12:17:43.960Z,7.50
2018-12-05T12:20:10.507Z,7.60
2018-12-05T12:25:04.197Z,7.60
2018-12-05T12:32:25.065Z,7.60
2018-12-05T12:34:51.443Z,7.60
2018-12-05T12:37:18.011Z,7.50
2018-12-05T12:39:44.410Z,7.50
2018-12-05T12:42:10.800Z,7.60
2018-12-05T12:44:37.333Z,7.60
2018-12-05T12:47:04.504Z,7.60
2018-12-05T12:49:31.068Z,7.60
2018-12-05T12:51:57.519Z,7.60
2018-12-05T12:56:50.898Z,7.60
2018-12-05T13:04:10.973Z,7.70
2018-12-05T13:06:37.534Z,7.80
2018-12-05T13:09:05.398Z,7.80
2018-12-05T13:13:58.632Z,8.00
2018-12-05T13:16:25.034Z,8.00
2018-12-05T13:18:51.439Z,8.10
2018-12-05T13:23:46.722Z,8.20
2018-12-05T13:26:13.142Z,8.30
2018-12-05T13:28:39.643Z,8.20
2018-12-05T13:31:06.065Z,8.20
2018-12-05T13:33:32.483Z,8.10
2018-12-05T13:40:53.708Z,8.10
2018-12-05T13:43:20.274Z,8.20
2018-12-05T13:45:46.650Z,8.10
2018-12-05T13:48:13.086Z,8.20
2018-12-05T13:50:39.529Z,8.50
2018-12-05T13:53:06.042Z,8.60
2018-12-05T13:55:32.431Z,8.70
2018-12-05T13:57:58.913Z,8.60
2018-12-05T14:02:52.183Z,8.30
2018-12-05T14:07:46.857Z,8.20
2018-12-05T14:10:13.463Z,8.10
2018-12-05T14:12:39.866Z,8.10
2018-12-05T14:15:07.576Z,8.10
2018-12-05T14:24:54.629Z,8.10
2018-12-05T14:29:47.851Z,7.90
2018-12-05T14:34:41.162Z,7.80
2018-12-05T14:39:34.343Z,7.70
2018-12-05T14:44:27.620Z,7.70
2018-12-05T14:46:54.147Z,7.60
2018-12-05T14:49:20.637Z,7.60
2018-12-05T14:51:47.170Z,7.60
2018-12-05T14:56:41.202Z,7.50
2018-12-05T14:59:07.683Z,7.50
2018-12-05T15:01:34.069Z,7.40
2018-12-05T15:04:00.495Z,7.50
2018-12-05T15:06:26.969Z,7.40
2018-12-05T15:08:53.509Z,7.40
2018-12-05T15:11:20.126Z,7.40
2018-12-05T15:13:46.632Z,7.40
2018-12-05T15:16:13.256Z,7.40
2018-12-05T15:18:40.209Z,7.40
2018-12-05T15:21:06.656Z,7.40
2018-12-05T15:23:33.210Z,7.40
2018-12-05T15:25:59.675Z,7.40
2018-12-05T15:28:26.116Z,7.40
2018-12-05T15:35:46.321Z,7.40
2018-12-05T15:38:12.705Z,7.40
2018-12-05T15:40:39.208Z,7.40
2018-12-05T15:43:06.068Z,7.40
2018-12-05T15:45:32.570Z,7.30
2018-12-05T15:47:59.038Z,7.30
2018-12-05T15:50:26.371Z,7.30
2018-12-05T15:52:52.819Z,7.40
2018-12-05T15:55:19.299Z,7.30
2018-12-05T15:57:45.831Z,7.40
2018-12-05T16:00:12.424Z,7.30
2018-12-05T16:02:38.939Z,7.40
2018-12-05T16:05:06.103Z,7.30
2018-12-05T16:07:32.554Z,7.30
2018-12-05T16:09:58.960Z,7.30
2018-12-05T16:12:25.347Z,7.40
2018-12-05T16:14:51.940Z,7.40
2018-12-05T16:17:18.350Z,9.00
2018-12-05T16:19:44.814Z,7.40
2018-12-05T16:22:11.315Z,7.40
2018-12-05T16:24:37.794Z,7.40
2018-12-05T16:34:24.743Z,7.40
2018-12-05T16:36:51.205Z,7.40
2018-12-05T16:39:17.601Z,7.50
2018-12-05T16:44:12.986Z,7.40
2018-12-05T16:46:40.222Z,7.50
2018-12-05T16:49:06.644Z,7.50
2018-12-05T16:56:26.626Z,7.50
2018-12-05T16:58:53.034Z,7.40
2018-12-05T17:03:49.330Z,7.40
2018-12-05T17:06:16.122Z,7.40
2018-12-05T17:08:42.567Z,7.40
2018-12-05T17:13:37.840Z,7.40
2018-12-05T17:16:04.318Z,7.40
2018-12-05T17:20:57.573Z,7.40
2018-12-05T17:23:24.065Z,7.40
2018-12-05T17:25:50.573Z,7.40
2018-12-05T17:28:17.062Z,7.40
2018-12-05T17:30:43.572Z,7.50
2018-12-05T17:33:10.056Z,7.50
2018-12-05T17:38:03.445Z,7.50
2018-12-05T17:40:31.060Z,7.50
2018-12-05T17:42:57.560Z,7.50
2018-12-05T17:45:24.025Z,7.50
2018-12-05T17:47:50.538Z,7.50
2018-12-05T17:50:17.048Z,7.50
2018-12-05T17:55:12.121Z,7.50
2018-12-05T17:57:38.597Z,7.50
2018-12-05T18:00:05.271Z,7.50
2018-12-05T18:02:31.676Z,7.50
2018-12-05T18:14:45.447Z,7.50
2018-12-05T18:19:38.840Z,7.50
2018-12-05T18:22:05.357Z,7.60
2018-12-05T18:24:32.193Z,7.60
2018-12-05T18:29:26.649Z,7.60
2018-12-05T18:34:19.885Z,7.60
2018-12-05T18:39:13.117Z,7.60
2018-12-05T18:41:39.814Z,7.70
2018-12-05T18:46:33.094Z,7.70
2018-12-05T18:48:59.600Z,7.70
2018-12-05T18:51:26.053Z,7.70
2018-12-05T18:53:52.498Z,7.70
2018-12-05T18:56:19.156Z,7.70
2018-12-05T18:58:45.560Z,7.70
2018-12-05T19:01:12.134Z,7.70
2018-12-05T19:03:38.647Z,7.80
2018-12-05T19:06:05.057Z,7.70
2018-12-05T19:08:34.385Z,7.80
2018-12-05T19:11:00.812Z,7.80
2018-12-05T19:13:27.307Z,7.80
2018-12-05T19:15:53.766Z,7.80
2018-12-05T19:18:20.146Z,7.80
2018-12-05T19:20:46.661Z,7.90
2018-12-05T19:23:13.101Z,7.90
2018-12-05T19:25:39.575Z,7.90
2018-12-05T19:30:33.054Z,7.90
2018-12-05T19:32:59.901Z,7.90
2018-12-05T19:35:26.372Z,7.90
2018-12-05T19:40:21.578Z,8.00
2018-12-05T19:42:47.999Z,7.90
2018-12-05T19:45:14.426Z,8.00
2018-12-05T19:47:41.116Z,7.90
2018-12-05T19:50:07.781Z,7.90
2018-12-05T19:52:34.877Z,7.90
2018-12-05T19:55:01.378Z,7.90
2018-12-05T19:57:28.046Z,7.90
2018-12-05T19:59:54.931Z,7.80
2018-12-05T20:02:21.386Z,7.90
2018-12-05T20:04:48.037Z,8.00
2018-12-05T20:07:16.077Z,8.00
2018-12-05T20:09:43.618Z,8.00
2018-12-05T20:12:11.281Z,8.00
2018-12-05T20:14:38.365Z,8.00
2018-12-05T20:17:05.266Z,8.00
2018-12-05T20:19:31.973Z,8.00
2018-12-05T20:24:25.257Z,8.10
2018-12-05T20:29:18.466Z,8.20
2018-12-05T20:31:45.018Z,8.20
2018-12-05T20:34:11.512Z,8.20
2018-12-05T20:36:38.014Z,8.20
2018-12-05T20:39:08.440Z,8.20
2018-12-05T20:44:01.960Z,8.30
2018-12-05T20:46:28.680Z,8.30
2018-12-05T20:48:55.105Z,8.30
2018-12-05T20:51:21.571Z,8.30
2018-12-05T20:53:48.062Z,8.40
2018-12-05T20:56:14.644Z,8.30
2018-12-05T21:01:08.801Z,8.40
2018-12-05T21:06:01.991Z,8.40
2018-12-05T21:08:29.158Z,8.40
2018-12-05T21:13:22.734Z,8.30
2018-12-05T21:15:49.209Z,8.30
2018-12-05T21:20:42.438Z,8.30
2018-12-05T21:23:08.942Z,8.30
2018-12-05T21:25:35.347Z,8.30
2018-12-05T21:28:01.831Z,8.30
2018-12-05T21:32:55.026Z,8.30
2018-12-05T21:37:48.268Z,8.20
2018-12-05T21:40:14.726Z,8.10
2018-12-05T21:45:54.888Z,8.00
2018-12-05T21:48:21.386Z,8.00
2018-12-05T21:50:47.805Z,8.00
2018-12-05T21:53:14.225Z,7.90
2018-12-05T21:55:40.622Z,7.90
2018-12-05T21:58:07.051Z,7.90
2018-12-05T22:00:35.459Z,7.90
2018-12-05T22:03:02.057Z,7.90
2018-12-05T22:05:28.464Z,7.90
2018-12-05T22:07:54.970Z,7.90
2018-12-05T22:10:21.388Z,7.90
2018-12-05T22:12:47.798Z,7.90
2018-12-05T22:15:14.300Z,7.90
2018-12-05T22:20:07.796Z,8.00
2018-12-05T22:25:01.070Z,8.00
2018-12-05T22:32:21.133Z,8.00
2018-12-05T22:34:47.533Z,8.00
2018-12-05T22:37:13.948Z,8.00
2018-12-05T22:39:40.405Z,8.00
2018-12-05T22:44:33.570Z,8.00
2018-12-05T22:46:59.961Z,8.10
2018-12-05T22:49:26.411Z,8.10
2018-12-05T22:51:52.891Z,8.10
2018-12-05T22:54:19.362Z,8.10
2018-12-05T22:56:58.135Z,8.10
2018-12-05T22:59:24.545Z,8.10
2018-12-05T23:01:51.021Z,8.10
2018-12-05T23:06:44.251Z,8.10
2018-12-05T23:09:10.702Z,8.10
2018-12-05T23:11:37.188Z,8.10
2018-12-05T23:14:03.760Z,8.20
2018-12-05T23:16:30.198Z,8.20
2018-12-05T23:18:56.736Z,8.20
2018-12-05T23:21:23.160Z,8.30
2018-12-05T23:26:16.375Z,8.30
2018-12-05T23:31:09.608Z,8.30
2018-12-05T23:33:36.090Z,8.40
2018-12-05T23:36:02.511Z,8.40
2018-12-05T23:38:29.016Z,8.40
2018-12-05T23:40:55.413Z,8.40
2018-12-05T23:45:48.626Z,8.40
2018-12-05T23:48:15.089Z,8.40
2018-12-05T23:50:41.536Z,8.50
2018-12-05T23:53:08.029Z,8.50
2018-12-05T23:55:34.465Z,8.50
2018-12-05T23:58:00.969Z,8.50
